Terminal Aerodrome Forecast
Issued by NWS

Home | Current Version | Previous Version | Text Only | Print | Product List | Glossary Off
Versions: 1 2 3 4 5 6 7 8 9 10 11 12 13 14 15 16 17 18 19 20 21 22 23 24 25 26 27

000
FTUS43 KLOT 171120
TAFDPA
TAF
KDPA 171120Z 1712/1812 18006KT P6SM SCT070 BKN250
     FM171400 23007KT P6SM VCSH BKN035 BKN120
     FM171700 27008KT P6SM BKN040 BKN120
     FM172000 32009KT P6SM SCT020 BKN035
     FM180000 01007KT P6SM SCT180 BKN250=

USA.gov is the U.S. government's official web portal to all federal, state and local government web resources and services.